Etusivu
METAR-TAF:

METAR-TAF

Lentoasemat :

Havanna, Kuuba

Leveyspiiri: 22-59N, Pituuspiiri: 082-24W, korkeus merenpinnasta: 59 m

Tämänhetkinen sää

Tämä raportti tehtiin 1 tunti ja 8 minuuttia sitten, kello 02.55 UTC
Tuuli 7 kn idästä/koillisesta
Lämpötila 21°C
Kosteus 78%
Ilmanpaine 1018 hPa
Näkyvyys: 9000 m
Muutamia pilviä 4000 ft:n korkeudessa

METAR: MUHA 230255Z 07007KT 9000 FEW040 21/17 Q1018

Aika: 00:03 (04:03 UTC)

Sääennuste

Tämä raportti tehtiin 5 tuntia ja 3 minuuttia sitten, kello 23.00 UTC
Ennuste voimassa 23. päivästä klo 00 UTC - 23. päivään klo 24 UTC
Tuuli 10 kn idästä/koillisesta
Näkyvyys: 9000 m
Muutamia pilviä 3500 ft:n korkeudessa

TAF: MUHA 222300Z 2300/2324 06010KT 9000 FEW035

Säähavainnot ja -ennusteet yli 4000 lentoasemalta (METAR- ja TAF-raportit).

Käytössä olevat sääasemat on merkitty karttaan keltaisilla ja punaisilla pisteillä.

Aseta hiiri pisteen päälle nähdäksesi sääaseman nimen.

Klikkaa sitten nähdäksesi säähavainnot ja -ennusteet.

Kartan vaihtaminen: klikkaa mustalla rastilla varustettuja vihreitä pisteitä, niin voit zoomata sisään; viivalla varustettua vihreää pistettä, niin voit zoomata ulos tai vihreitä nuolia, niin pääset viereisille kartoille.


METAR-TAF: